Time;durP1;ratioP1;P1;durP2;ratioP2;P2;SDS_P1;SDS_P2;PMS_P1;PMS_P2;Temp;Humidity;BMP_temperature;BMP_pressure;BME280_temperature;BME280_humidity;BME280_pressure;Samples;Min_cycle;Max_cycle;Signal;HPM_P1;HPM_P2
2022/05/06 00:02:45;;;;;;;;;;;;;;;;;;8294999;28;27309;-59
2022/05/06 00:06:45;;;;;;;;;;;;;;;;;;8300051;28;28061;-55
2022/05/06 00:10:45;;;;;;;;;;;;;;;;;;8298713;28;27717;-56
2022/05/06 00:14:45;;;;;;;;;;;;;;;;;;8301568;28;27861;-58
2022/05/06 00:18:45;;;;;;;;;;;;;;;;;;8300873;28;28442;-56
2022/05/06 00:22:46;;;;;;;;;;;;;;;;;;8300623;28;27868;-58
2022/05/06 00:26:46;;;;;;;;;;;;;;;;;;8299087;28;27297;-58
2022/05/06 00:30:46;;;;;;;;;;;;;;;;;;8299737;28;29241;-58
2022/05/06 00:34:46;;;;;;;;;;;;;;;;;;8297857;28;30013;-58
2022/05/06 00:38:46;;;;;;;;;;;;;;;;;;8296504;28;28242;-58
2022/05/06 00:42:50;;;;;;;;;;;;;;;;;;8297465;28;27321;-60
2022/05/06 00:46:50;;;;;;;;;;;;;;;;;;8298712;28;28049;-60
2022/05/06 00:50:50;;;;;;;;;;;;;;;;;;8302563;28;27857;-57
2022/05/06 00:54:50;;;;;;;;;;;;;;;;;;8306000;28;29692;-58
2022/05/06 00:58:50;;;;;;;;;;;;;;;;;;8304278;28;27407;-58
2022/05/06 01:02:50;;;;;;;;;;;;;;;;;;8300698;28;28122;-58
2022/05/06 01:06:50;;;;;;;;;;;;;;;;;;8300582;28;28183;-57
2022/05/06 01:10:50;;;;;;;;;;;;;;;;;;8318320;28;27832;-58
2022/05/06 01:14:50;;;;;;;;;;;;;;;;;;8305003;28;27801;-58
2022/05/06 01:18:51;;;;;;;;;;;;;;;;;;8302411;28;28760;-60
2022/05/06 01:22:51;;;;;;;;;;;;;;;;;;8319676;28;29601;-58
2022/05/06 01:26:52;;;;;;;;;;;;;;;;;;8303880;28;27915;-59
2022/05/06 01:30:58;;;;;;;;;;;;;;;;;;8301540;28;28028;-59
2022/05/06 01:34:58;;;;;;;;;;;;;;;;;;8308575;28;28072;-58
2022/05/06 01:38:59;;;;;;;;;;;;;;;;;;8302289;28;27640;-58
2022/05/06 01:42:59;;;;;;;;;;;;;;;;;;8301397;28;28084;-58
2022/05/06 01:46:59;;;;;;;;;;;;;;;;;;8302145;28;27720;-58
2022/05/06 01:50:59;;;;;;;;;;;;;;;;;;8301478;28;28302;-58
2022/05/06 01:54:59;;;;;;;;;;;;;;;;;;8299767;28;27270;-57
2022/05/06 01:58:59;;;;;;;;;;;;;;;;;;8318637;28;27659;-58
2022/05/06 02:02:59;;;;;;;;;;;;;;;;;;8303855;28;27335;-57
2022/05/06 02:07:00;;;;;;;;;;;;;;;;;;8316126;28;27665;-58
2022/05/06 02:11:01;;;;;;;;;;;;;;;;;;8302572;28;29030;-57
2022/05/06 02:15:02;;;;;;;;;;;;;;;;;;8304679;28;27853;-58
2022/05/06 02:19:06;;;;;;;;;;;;;;;;;;8302110;28;27315;-50
2022/05/06 02:23:06;;;;;;;;;;;;;;;;;;8304061;28;27242;-58
2022/05/06 02:27:06;;;;;;;;;;;;;;;;;;8299851;28;28557;-58
2022/05/06 02:35:28;;;;;;;;;;;;;;;;;;8295421;28;27401;-58
2022/05/06 02:39:28;;;;;;;;;;;;;;;;;;8298749;28;27864;-58
2022/05/06 02:43:28;;;;;;;;;;;;;;;;;;8301033;28;28583;-58
2022/05/06 02:47:29;;;;;;;;;;;;;;;;;;8297864;28;28112;-60
2022/05/06 02:51:29;;;;;;;;;;;;;;;;;;8297762;28;30085;-59
2022/05/06 02:55:29;;;;;;;;;;;;;;;;;;8302098;28;27907;-57
2022/05/06 02:59:31;;;;;;;;;;;;;;;;;;8295664;28;28221;-57
2022/05/06 03:03:33;;;;;;;;;;;;;;;;;;8296270;28;27633;-56
2022/05/06 03:07:33;;;;;;;;;;;;;;;;;;8298043;28;27720;-57
2022/05/06 03:11:33;;;;;;;;;;;;;;;;;;8296935;28;27535;-58
2022/05/06 03:15:34;;;;;;;;;;;;;;;;;;8301328;28;27764;-59
2022/05/06 03:19:35;;;;;;;;;;;;;;;;;;8295104;28;27551;-58
2022/05/06 03:23:35;;;;;;;;;;;;;;;;;;8296384;28;28198;-57
2022/05/06 03:31:54;;;;;;;;;;;;;;;;;;8301429;28;27680;-58
2022/05/06 03:35:54;;;;;;;;;;;;;;;;;;8298326;28;28231;-57
2022/05/06 03:39:54;;;;;;;;;;;;;;;;;;8292130;28;27869;-58
2022/05/06 03:43:54;;;;;;;;;;;;;;;;;;8292684;28;28162;-58
2022/05/06 03:47:54;;;;;;;;;;;;;;;;;;8298079;28;27275;-58
2022/05/06 03:51:55;;;;;;;;;;;;;;;;;;8299392;28;27280;-58
2022/05/06 03:55:55;;;;;;;;;;;;;;;;;;8293942;28;27380;-58
2022/05/06 03:59:55;;;;;;;;;;;;;;;;;;8293106;28;28247;-56
2022/05/06 04:03:55;;;;;;;;;;;;;;;;;;8313599;28;27360;-57
2022/05/06 04:07:56;;;;;;;;;;;;;;;;;;8306385;28;28701;-57
2022/05/06 04:11:58;;;;;;;;;;;;;;;;;;8298099;28;27916;-58
2022/05/06 04:15:58;;;;;;;;;;;;;;;;;;8299471;28;27891;-57
2022/05/06 04:24:17;;;;;;;;;;;;;;;;;;8300874;28;28103;-58
2022/05/06 04:28:17;;;;;;;;;;;;;;;;;;8298848;28;28183;-58
2022/05/06 04:32:17;;;;;;;;;;;;;;;;;;8301229;28;27995;-58
2022/05/06 04:36:18;;;;;;;;;;;;;;;;;;8307055;28;27415;-58
2022/05/06 04:40:18;;;;;;;;;;;;;;;;;;8301683;28;27488;-58
2022/05/06 04:44:18;;;;;;;;;;;;;;;;;;8303161;28;28375;-58
2022/05/06 04:48:18;;;;;;;;;;;;;;;;;;8293336;28;27902;-57
2022/05/06 04:52:18;;;;;;;;;;;;;;;;;;8295332;28;28780;-60
2022/05/06 04:56:18;;;;;;;;;;;;;;;;;;8300575;28;27699;-58
2022/05/06 05:00:18;;;;;;;;;;;;;;;;;;8301951;28;28047;-57
2022/05/06 05:04:19;;;;;;;;;;;;;;;;;;8302009;28;27831;-52
2022/05/06 05:08:19;;;;;;;;;;;;;;;;;;8304992;28;27626;-51
2022/05/06 05:12:19;;;;;;;;;;;;;;;;;;8305200;28;28055;-58
2022/05/06 05:16:19;;;;;;;;;;;;;;;;;;8299902;28;27973;-58
2022/05/06 05:20:19;;;;;;;;;;;;;;;;;;8298955;28;27522;-58
2022/05/06 05:24:19;;;;;;;;;;;;;;;;;;8317790;28;27479;-58
2022/05/06 05:28:19;;;;;;;;;;;;;;;;;;8305901;28;28093;-58
2022/05/06 05:32:19;;;;;;;;;;;;;;;;;;8305025;28;28436;-52
2022/05/06 05:36:20;;;;;;;;;;;;;;;;;;8303631;28;27904;-58
2022/05/06 05:40:20;;;;;;;;;;;;;;;;;;8307047;28;27816;-58
2022/05/06 05:48:39;;;;;;;;;;;;;;;;;;8307581;28;28171;-58
2022/05/06 05:52:39;;;;;;;;;;;;;;;;;;8302381;28;27603;-60
2022/05/06 05:56:39;;;;;;;;;;;;;;;;;;8311293;28;28825;-56
2022/05/06 06:00:39;;;;;;;;;;;;;;;;;;8308549;28;29495;-58
2022/05/06 06:04:41;;;;;;;;;;;;;;;;;;8303044;28;27521;-52
2022/05/06 06:08:41;;;;;;;;;;;;;;;;;;8306953;28;28111;-56
2022/05/06 06:12:41;;;;;;;;;;;;;;;;;;8310634;28;27674;-58
2022/05/06 06:16:41;;;;;;;;;;;;;;;;;;8305727;28;27873;-58
2022/05/06 06:20:42;;;;;;;;;;;;;;;;;;8304485;28;28362;-58
2022/05/06 06:24:42;;;;;;;;;;;;;;;;;;8306540;28;27513;-57
2022/05/06 06:28:42;;;;;;;;;;;;;;;;;;8302228;28;28151;-57
2022/05/06 06:32:42;;;;;;;;;;;;;;;;;;8309548;28;27314;-58
2022/05/06 06:36:42;;;;;;;;;;;;;;;;;;8305500;28;28476;-57
2022/05/06 06:40:42;;;;;;;;;;;;;;;;;;8305671;28;28082;-57
2022/05/06 06:44:42;;;;;;;;;;;;;;;;;;8317343;28;28153;-58
2022/05/06 06:48:42;;;;;;;;;;;;;;;;;;8303649;28;27309;-58
2022/05/06 06:52:43;;;;;;;;;;;;;;;;;;8306213;28;27731;-58
2022/05/06 06:56:43;;;;;;;;;;;;;;;;;;8305411;28;27297;-58
2022/05/06 07:00:43;;;;;;;;;;;;;;;;;;8307128;28;27430;-58
2022/05/06 07:04:43;;;;;;;;;;;;;;;;;;8307732;28;28479;-58
2022/05/06 07:13:02;;;;;;;;;;;;;;;;;;8308444;28;27706;-58
2022/05/06 07:17:02;;;;;;;;;;;;;;;;;;8304318;28;28510;-58
2022/05/06 07:21:02;;;;;;;;;;;;;;;;;;8296289;28;27217;-58
2022/05/06 07:25:03;;;;;;;;;;;;;;;;;;8307474;28;27156;-58
2022/05/06 07:29:03;;;;;;;;;;;;;;;;;;8305370;28;27940;-58
2022/05/06 07:33:03;;;;;;;;;;;;;;;;;;8308699;28;28608;-57
2022/05/06 07:37:03;;;;;;;;;;;;;;;;;;8305384;28;29513;-59
2022/05/06 07:41:04;;;;;;;;;;;;;;;;;;8306048;28;27542;-58
2022/05/06 07:45:04;;;;;;;;;;;;;;;;;;8303114;28;28589;-58
2022/05/06 07:49:04;;;;;;;;;;;;;;;;;;8301445;28;28270;-60
2022/05/06 07:53:04;;;;;;;;;;;;;;;;;;8303348;28;27695;-57
2022/05/06 07:57:05;;;;;;;;;;;;;;;;;;8306962;28;27245;-58
2022/05/06 08:01:05;;;;;;;;;;;;;;;;;;8309157;28;27464;-61
2022/05/06 08:05:05;;;;;;;;;;;;;;;;;;8308344;28;28202;-60
2022/05/06 08:09:06;;;;;;;;;;;;;;;;;;8310061;28;28710;-58
2022/05/06 08:13:06;;;;;;;;;;;;;;;;;;8314253;28;27473;-55
2022/05/06 08:17:06;;;;;;;;;;;;;;;;;;8309245;28;28324;-59
2022/05/06 08:21:06;;;;;;;;;;;;;;;;;;8303951;28;28009;-58
2022/05/06 08:25:06;;;;;;;;;;;;;;;;;;8305328;28;27415;-59
2022/05/06 08:29:07;;;;;;;;;;;;;;;;;;8305004;28;28180;-52
2022/05/06 08:33:07;;;;;;;;;;;;;;;;;;8305216;28;28192;-59
2022/05/06 08:37:07;;;;;;;;;;;;;;;;;;8310124;28;27962;-61
2022/05/06 08:41:09;;;;;;;;;;;;;;;;;;8308276;28;28149;-59
2022/05/06 08:53:47;;;;;;;;;;;;;;;;;;8306897;28;27386;-60
2022/05/06 08:57:47;;;;;;;;;;;;;;;;;;8306469;28;27426;-57
2022/05/06 09:01:47;;;;;;;;;;;;;;;;;;8312353;28;28408;-59
2022/05/06 09:05:47;;;;;;;;;;;;;;;;;;8313953;28;28197;-58
2022/05/06 09:09:47;;;;;;;;;;;;;;;;;;8301577;28;27988;-59
2022/05/06 09:13:47;;;;;;;;;;;;;;;;;;8306782;28;27310;-60
2022/05/06 09:17:48;;;;;;;;;;;;;;;;;;8310066;28;27915;-53
2022/05/06 09:21:48;;;;;;;;;;;;;;;;;;8310059;28;27731;-59
2022/05/06 09:25:52;;;;;;;;;;;;;;;;;;8308747;28;27569;-59
2022/05/06 09:29:54;;;;;;;;;;;;;;;;;;8308816;28;27381;-58
2022/05/06 09:33:54;;;;;;;;;;;;;;;;;;8311234;28;27727;-58
2022/05/06 09:37:54;;;;;;;;;;;;;;;;;;8305534;28;27626;-59
2022/05/06 09:41:54;;;;;;;;;;;;;;;;;;8304621;28;27859;-59
2022/05/06 09:45:55;;;;;;;;;;;;;;;;;;8305191;28;27686;-59
2022/05/06 09:49:55;;;;;;;;;;;;;;;;;;8305162;28;27691;-59
2022/05/06 09:53:55;;;;;;;;;;;;;;;;;;8320931;28;28206;-59
2022/05/06 09:57:55;;;;;;;;;;;;;;;;;;8319627;28;29312;-59
2022/05/06 10:01:55;;;;;;;;;;;;;;;;;;8308032;28;27543;-59
2022/05/06 10:05:55;;;;;;;;;;;;;;;;;;8311452;28;27233;-60
2022/05/06 10:09:55;;;;;;;;;;;;;;;;;;8308613;28;27265;-58
2022/05/06 10:14:00;;;;;;;;;;;;;;;;;;8305467;28;27425;-59
2022/05/06 10:18:02;;;;;;;;;;;;;;;;;;8297260;28;28567;-59
2022/05/06 10:22:02;;;;;;;;;;;;;;;;;;8302656;28;27813;-60
2022/05/06 10:26:02;;;;;;;;;;;;;;;;;;8305029;28;27659;-59
2022/05/06 10:34:23;;;;;;;;;;;;;;;;;;8280161;28;28415;-58
2022/05/06 10:38:23;;;;;;;;;;;;;;;;;;8300166;28;27934;-59
2022/05/06 10:42:23;;;;;;;;;;;;;;;;;;8302041;28;27715;-58
2022/05/06 10:46:23;;;;;;;;;;;;;;;;;;8301911;28;27385;-59
2022/05/06 10:50:29;;;;;;;;;;;;;;;;;;8297571;28;27944;-59
2022/05/06 10:54:29;;;;;;;;;;;;;;;;;;8301873;28;27638;-58
2022/05/06 10:58:29;;;;;;;;;;;;;;;;;;8299337;28;27708;-60
2022/05/06 11:02:30;;;;;;;;;;;;;;;;;;8314743;28;28654;-58
2022/05/06 11:06:30;;;;;;;;;;;;;;;;;;8301999;28;27520;-59
2022/05/06 11:10:30;;;;;;;;;;;;;;;;;;8295789;28;27737;-58
2022/05/06 11:14:30;;;;;;;;;;;;;;;;;;8300286;28;27414;-58
2022/05/06 11:18:31;;;;;;;;;;;;;;;;;;8295172;28;27847;-59
2022/05/06 11:22:34;;;;;;;;;;;;;;;;;;8302411;28;27432;-58
2022/05/06 11:26:34;;;;;;;;;;;;;;;;;;8302541;28;27935;-57
2022/05/06 11:30:34;;;;;;;;;;;;;;;;;;8302768;28;27533;-60
2022/05/06 11:34:35;;;;;;;;;;;;;;;;;;8304778;28;27242;-56
2022/05/06 11:38:35;;;;;;;;;;;;;;;;;;8301571;28;28166;-58
2022/05/06 11:42:35;;;;;;;;;;;;;;;;;;8304044;28;27508;-58
2022/05/06 11:50:54;;;;;;;;;;;;;;;;;;8293593;28;28080;-58
2022/05/06 11:54:54;;;;;;;;;;;;;;;;;;8298659;28;27560;-55
2022/05/06 11:58:54;;;;;;;;;;;;;;;;;;8301290;28;27988;-57
2022/05/06 12:02:54;;;;;;;;;;;;;;;;;;8300826;28;27468;-61
2022/05/06 12:06:55;;;;;;;;;;;;;;;;;;8303534;28;27639;-59
2022/05/06 12:10:55;;;;;;;;;;;;;;;;;;8302432;28;28509;-59
2022/05/06 12:14:55;;;;;;;;;;;;;;;;;;8300891;28;28344;-60
2022/05/06 12:18:58;;;;;;;;;;;;;;;;;;8298869;28;28181;-59
2022/05/06 12:22:58;;;;;;;;;;;;;;;;;;8297688;28;28008;-59
2022/05/06 12:26:58;;;;;;;;;;;;;;;;;;8297717;28;27934;-60
2022/05/06 12:30:59;;;;;;;;;;;;;;;;;;8299907;28;27451;-58
2022/05/06 12:34:59;;;;;;;;;;;;;;;;;;8298824;28;28310;-61
2022/05/06 12:38:59;;;;;;;;;;;;;;;;;;8300570;28;28218;-59
2022/05/06 12:42:59;;;;;;;;;;;;;;;;;;8304939;28;27921;-58
2022/05/06 12:46:59;;;;;;;;;;;;;;;;;;8303891;28;28014;-59
2022/05/06 12:50:59;;;;;;;;;;;;;;;;;;8302117;28;27788;-58
2022/05/06 12:55:00;;;;;;;;;;;;;;;;;;8304089;28;28748;-58
2022/05/06 12:59:00;;;;;;;;;;;;;;;;;;8302047;28;27967;-55
2022/05/06 13:03:02;;;;;;;;;;;;;;;;;;8303648;28;29043;-59
2022/05/06 13:07:02;;;;;;;;;;;;;;;;;;8307215;28;28026;-55
2022/05/06 13:11:02;;;;;;;;;;;;;;;;;;8308892;28;28170;-59
2022/05/06 13:15:03;;;;;;;;;;;;;;;;;;8322660;28;27605;-60
2022/05/06 13:19:03;;;;;;;;;;;;;;;;;;8307936;28;28051;-59
2022/05/06 13:23:03;;;;;;;;;;;;;;;;;;8304477;28;28341;-60
2022/05/06 13:27:03;;;;;;;;;;;;;;;;;;8306682;28;27925;-57
2022/05/06 13:31:03;;;;;;;;;;;;;;;;;;8307686;28;28216;-59
2022/05/06 13:35:03;;;;;;;;;;;;;;;;;;8309073;28;27810;-58
2022/05/06 13:39:03;;;;;;;;;;;;;;;;;;8307314;28;27681;-59
2022/05/06 13:43:04;;;;;;;;;;;;;;;;;;8310812;28;27804;-59
2022/05/06 13:47:04;;;;;;;;;;;;;;;;;;8312272;28;27426;-59
2022/05/06 13:51:04;;;;;;;;;;;;;;;;;;8304511;28;27883;-59
2022/05/06 13:55:04;;;;;;;;;;;;;;;;;;8312088;28;27875;-59
2022/05/06 13:59:05;;;;;;;;;;;;;;;;;;8307404;28;27667;-60
2022/05/06 14:03:05;;;;;;;;;;;;;;;;;;8310813;28;29009;-59
2022/05/06 14:07:05;;;;;;;;;;;;;;;;;;8303174;28;28244;-59
2022/05/06 14:11:05;;;;;;;;;;;;;;;;;;8306316;28;28120;-60
2022/05/06 14:15:06;;;;;;;;;;;;;;;;;;8309161;28;27162;-60
2022/05/06 14:19:08;;;;;;;;;;;;;;;;;;8306140;28;27774;-59
2022/05/06 14:23:08;;;;;;;;;;;;;;;;;;8306020;28;27390;-59
2022/05/06 14:27:08;;;;;;;;;;;;;;;;;;8309251;28;27442;-60
2022/05/06 14:31:08;;;;;;;;;;;;;;;;;;8304834;28;27727;-56
2022/05/06 14:35:19;;;;;;;;;;;;;;;;;;8318398;28;28853;-58
2022/05/06 14:39:19;;;;;;;;;;;;;;;;;;8308252;28;28053;-60
2022/05/06 14:43:19;;;;;;;;;;;;;;;;;;8307099;28;28394;-59
2022/05/06 14:47:19;;;;;;;;;;;;;;;;;;8306547;28;28067;-60
2022/05/06 14:51:19;;;;;;;;;;;;;;;;;;8304791;28;27672;-60
2022/05/06 14:55:21;;;;;;;;;;;;;;;;;;8305491;28;27896;-55
2022/05/06 14:59:21;;;;;;;;;;;;;;;;;;8301967;28;27993;-58
2022/05/06 15:03:23;;;;;;;;;;;;;;;;;;8310970;28;27324;-59
2022/05/06 15:07:23;;;;;;;;;;;;;;;;;;8307099;28;27930;-60
2022/05/06 15:11:23;;;;;;;;;;;;;;;;;;8301159;28;28224;-58
2022/05/06 15:15:23;;;;;;;;;;;;;;;;;;8301843;28;27746;-59
2022/05/06 15:19:23;;;;;;;;;;;;;;;;;;8305726;28;28142;-59
2022/05/06 15:23:24;;;;;;;;;;;;;;;;;;8304837;28;28245;-59
2022/05/06 15:27:25;;;;;;;;;;;;;;;;;;8307663;28;28087;-60
2022/05/06 15:31:28;;;;;;;;;;;;;;;;;;8309109;28;27788;-59
2022/05/06 15:35:28;;;;;;;;;;;;;;;;;;8312097;28;27334;-58
2022/05/06 15:39:28;;;;;;;;;;;;;;;;;;8298726;28;27326;-59
2022/05/06 15:43:28;;;;;;;;;;;;;;;;;;8305343;28;27624;-60
2022/05/06 15:47:28;;;;;;;;;;;;;;;;;;8302201;28;27863;-60
2022/05/06 15:51:28;;;;;;;;;;;;;;;;;;8302603;28;27760;-60
2022/05/06 16:10:05;;;;;;;;;;;;;;;;;;8536652;27;27950;-78
2022/05/06 16:14:05;;;;;;;;;;;;;;;;;;8502559;27;28345;-78
2022/05/06 16:18:06;;;;;;;;;;;;;;;;;;8481900;27;28644;-78
2022/05/06 16:22:06;;;;;;;;;;;;;;;;;;8461936;27;28599;-78
2022/05/06 16:26:06;;;;;;;;;;;;;;;;;;8480823;27;27919;-78
2022/05/06 16:30:06;;;;;;;;;;;;;;;;;;8482095;27;27358;-77
2022/05/06 16:38:25;;;;;;;;;;;;;;;;;;8476829;27;27250;-78
2022/05/06 16:42:25;;;;;;;;;;;;;;;;;;8465651;27;28378;-78
2022/05/06 16:46:26;;;;;;;;;;;;;;;;;;8469644;27;28817;-78
2022/05/06 16:50:26;;;;;;;;;;;;;;;;;;8478914;27;27560;-77
2022/05/06 16:54:26;;;;;;;;;;;;;;;;;;8467850;27;28165;-77
2022/05/06 16:58:26;;;;;;;;;;;;;;;;;;8461459;27;28342;-79
2022/05/06 17:02:26;;;;;;;;;;;;;;;;;;8479821;27;27394;-76
2022/05/06 17:06:27;;;;;;;;;;;;;;;;;;8499695;27;27320;-77
2022/05/06 17:10:27;;;;;;;;;;;;;;;;;;8483597;27;27534;-77
2022/05/06 17:14:27;;;;;;;;;;;;;;;;;;8465949;27;28208;-78
2022/05/06 17:18:27;;;;;;;;;;;;;;;;;;8468179;27;27388;-77
2022/05/06 17:22:28;;;;;;;;;;;;;;;;;;8441569;27;29152;-78
2022/05/06 17:26:29;;;;;;;;;;;;;;;;;;8455407;27;27562;-77
2022/05/06 17:30:30;;;;;;;;;;;;;;;;;;8436079;27;28555;-77
2022/05/06 17:34:30;;;;;;;;;;;;;;;;;;8459929;27;27939;-77
2022/05/06 17:38:30;;;;;;;;;;;;;;;;;;8461008;27;27542;-76
2022/05/06 17:42:30;;;;;;;;;;;;;;;;;;8442578;27;27942;-77
2022/05/06 17:46:31;;;;;;;;;;;;;;;;;;8435183;27;28156;-76
2022/05/06 17:50:31;;;;;;;;;;;;;;;;;;8455021;27;27944;-77
2022/05/06 17:54:31;;;;;;;;;;;;;;;;;;8441897;27;28426;-78
2022/05/06 17:58:31;;;;;;;;;;;;;;;;;;8456307;27;27515;-77
2022/05/06 18:02:31;;;;;;;;;;;;;;;;;;8458611;27;27621;-78
2022/05/06 18:06:31;;;;;;;;;;;;;;;;;;8460552;27;27772;-77
2022/05/06 18:10:32;;;;;;;;;;;;;;;;;;8456766;27;27264;-76
2022/05/06 18:14:32;;;;;;;;;;;;;;;;;;8452036;27;28351;-77
2022/05/06 18:18:32;;;;;;;;;;;;;;;;;;8445618;27;27288;-77
2022/05/06 18:22:32;;;;;;;;;;;;;;;;;;8450489;27;27723;-77
2022/05/06 18:26:32;;;;;;;;;;;;;;;;;;8450125;27;27646;-77
2022/05/06 18:30:32;;;;;;;;;;;;;;;;;;8442177;27;27352;-77
2022/05/06 18:34:33;;;;;;;;;;;;;;;;;;8448668;27;27795;-77
2022/05/06 18:38:33;;;;;;;;;;;;;;;;;;8428245;27;28334;-77
2022/05/06 18:42:33;;;;;;;;;;;;;;;;;;8447787;27;28114;-77
2022/05/06 18:46:33;;;;;;;;;;;;;;;;;;8445158;27;27321;-77
2022/05/06 18:50:33;;;;;;;;;;;;;;;;;;8443826;27;27203;-77
2022/05/06 18:54:34;;;;;;;;;;;;;;;;;;8426004;27;28317;-77
2022/05/06 18:58:34;;;;;;;;;;;;;;;;;;8445178;27;27330;-77
2022/05/06 19:02:35;;;;;;;;;;;;;;;;;;8489167;27;27383;-76
2022/05/06 19:06:35;;;;;;;;;;;;;;;;;;8433224;27;28539;-77
2022/05/06 19:10:35;;;;;;;;;;;;;;;;;;8429500;27;28908;-78
2022/05/06 19:14:37;;;;;;;;;;;;;;;;;;8444014;27;27835;-77
2022/05/06 19:18:37;;;;;;;;;;;;;;;;;;8449078;27;28120;-78
2022/05/06 19:26:56;;;;;;;;;;;;;;;;;;8443717;27;27435;-77
2022/05/06 19:30:57;;;;;;;;;;;;;;;;;;8429142;27;28888;-77
2022/05/06 19:34:57;;;;;;;;;;;;;;;;;;8444918;27;27973;-77
2022/05/06 19:38:57;;;;;;;;;;;;;;;;;;8429941;27;28245;-77
2022/05/06 19:42:58;;;;;;;;;;;;;;;;;;8428802;27;29266;-77
2022/05/06 19:46:59;;;;;;;;;;;;;;;;;;8446751;27;29009;-77
2022/05/06 19:50:59;;;;;;;;;;;;;;;;;;8444848;27;27498;-77
2022/05/06 19:54:59;;;;;;;;;;;;;;;;;;8449136;27;27687;-78
2022/05/06 19:58:59;;;;;;;;;;;;;;;;;;8423583;27;29086;-77
2022/05/06 20:03:05;;;;;;;;;;;;;;;;;;8446435;27;28103;-77
2022/05/06 20:07:05;;;;;;;;;;;;;;;;;;8431100;27;28610;-78
2022/05/06 20:11:05;;;;;;;;;;;;;;;;;;8435655;27;27656;-77
2022/05/06 20:15:05;;;;;;;;;;;;;;;;;;8440075;27;28222;-77
2022/05/06 20:19:05;;;;;;;;;;;;;;;;;;8443274;27;27551;-77
2022/05/06 20:23:05;;;;;;;;;;;;;;;;;;8432121;27;29181;-77
2022/05/06 20:27:06;;;;;;;;;;;;;;;;;;8446278;27;27412;-77
2022/05/06 20:31:06;;;;;;;;;;;;;;;;;;8422179;27;28642;-77
2022/05/06 20:35:06;;;;;;;;;;;;;;;;;;8429593;27;28174;-77
2022/05/06 20:39:08;;;;;;;;;;;;;;;;;;8440489;27;28151;-77
2022/05/06 20:43:08;;;;;;;;;;;;;;;;;;8443607;27;28424;-77
2022/05/06 20:47:08;;;;;;;;;;;;;;;;;;8451171;27;28189;-77
2022/05/06 20:51:08;;;;;;;;;;;;;;;;;;8431424;27;28472;-78
2022/05/06 20:55:08;;;;;;;;;;;;;;;;;;8459202;27;27416;-77
2022/05/06 20:59:21;;;;;;;;;;;;;;;;;;8480332;27;27112;-77
2022/05/06 21:03:21;;;;;;;;;;;;;;;;;;8456459;27;27363;-77
2022/05/06 21:07:22;;;;;;;;;;;;;;;;;;8433827;27;28328;-77
2022/05/06 21:15:41;;;;;;;;;;;;;;;;;;8454189;27;27420;-77
2022/05/06 21:19:41;;;;;;;;;;;;;;;;;;8449791;27;28637;-77
2022/05/06 21:23:44;;;;;;;;;;;;;;;;;;8452451;27;28359;-77
2022/05/06 21:27:44;;;;;;;;;;;;;;;;;;8450160;27;28244;-77
2022/05/06 21:31:44;;;;;;;;;;;;;;;;;;8448496;27;27569;-76
2022/05/06 21:35:46;;;;;;;;;;;;;;;;;;8435149;27;28188;-77
2022/05/06 21:39:46;;;;;;;;;;;;;;;;;;8436843;27;29361;-77
2022/05/06 21:43:46;;;;;;;;;;;;;;;;;;8452979;27;27591;-77
2022/05/06 21:47:46;;;;;;;;;;;;;;;;;;8447511;27;27516;-77
2022/05/06 21:51:46;;;;;;;;;;;;;;;;;;8438103;27;28519;-78
2022/05/06 21:55:47;;;;;;;;;;;;;;;;;;8448590;27;27388;-77
2022/05/06 21:59:48;;;;;;;;;;;;;;;;;;8432034;27;29117;-78
2022/05/06 22:03:48;;;;;;;;;;;;;;;;;;8447375;27;27430;-77
2022/05/06 22:07:49;;;;;;;;;;;;;;;;;;8450660;27;27256;-78
2022/05/06 22:11:49;;;;;;;;;;;;;;;;;;8433471;27;29292;-77
2022/05/06 22:15:49;;;;;;;;;;;;;;;;;;8456061;27;27464;-77
2022/05/06 22:19:49;;;;;;;;;;;;;;;;;;8434160;27;28287;-77
2022/05/06 22:23:49;;;;;;;;;;;;;;;;;;8451146;27;27322;-77
2022/05/06 22:27:49;;;;;;;;;;;;;;;;;;8443635;27;27508;-77
2022/05/06 22:31:49;;;;;;;;;;;;;;;;;;8433581;27;29144;-76
2022/05/06 22:35:49;;;;;;;;;;;;;;;;;;8443101;27;27171;-77
2022/05/06 22:39:50;;;;;;;;;;;;;;;;;;8442609;27;27860;-77
2022/05/06 22:48:08;;;;;;;;;;;;;;;;;;8462220;27;27117;-77
2022/05/06 22:52:08;;;;;;;;;;;;;;;;;;8471271;27;27318;-77
2022/05/06 22:56:12;;;;;;;;;;;;;;;;;;8443690;27;27830;-78
2022/05/06 23:00:13;;;;;;;;;;;;;;;;;;8440771;27;27289;-77
2022/05/06 23:04:13;;;;;;;;;;;;;;;;;;8429345;27;28583;-77
2022/05/06 23:08:13;;;;;;;;;;;;;;;;;;8440489;27;27614;-76
2022/05/06 23:12:13;;;;;;;;;;;;;;;;;;8441608;27;27914;-77
2022/05/06 23:16:13;;;;;;;;;;;;;;;;;;8443161;27;27192;-77
2022/05/06 23:20:14;;;;;;;;;;;;;;;;;;8424017;27;28359;-77
2022/05/06 23:24:14;;;;;;;;;;;;;;;;;;8443308;27;27595;-77
2022/05/06 23:28:14;;;;;;;;;;;;;;;;;;8445831;27;27754;-76
2022/05/06 23:32:14;;;;;;;;;;;;;;;;;;8432286;27;29503;-77
2022/05/06 23:40:33;;;;;;;;;;;;;;;;;;8440075;27;27647;-77
2022/05/06 23:44:33;;;;;;;;;;;;;;;;;;8445179;27;27169;-77
2022/05/06 23:48:33;;;;;;;;;;;;;;;;;;8447779;27;27155;-77
2022/05/06 23:52:33;;;;;;;;;;;;;;;;;;8433967;27;28543;-77
2022/05/06 23:56:35;;;;;;;;;;;;;;;;;;8446628;27;28265;-77
